Time;durP1;ratioP1;P1;durP2;ratioP2;P2;SDS_P1;SDS_P2;PMS_P1;PMS_P2;Temp;Humidity;BMP_temperature;BMP_pressure;BME280_temperature;BME280_humidity;BME280_pressure;Samples;Min_cycle;Max_cycle;Signal;HPM_P1;HPM_P2
2023/09/21 00:02:23;;;;;;;;;;;;;;;;;;5006924;28;1174;-61
2023/09/21 00:04:50;;;;;;;;;;;;;;;;;;4995055;28;4955;-61
2023/09/21 00:07:15;;;;;;;;;;;;;;;;;;5005488;28;4620;-62
2023/09/21 00:09:40;;;;;;;;;;;;;;;;;;5001260;28;5060;-62
2023/09/21 00:12:09;;;;;;;;;;;;;;;;;;4995930;28;4554;-61
2023/09/21 00:14:34;;;;;;;;;;;;;;;;;;5002303;28;5176;-62
2023/09/21 00:17:00;;;;;;;;;;;;;;;;;;4982231;28;1175;-62
2023/09/21 00:19:26;;;;;;;;;;;;;;;;;;5002056;28;4651;-62
2023/09/21 00:21:54;;;;;;;;;;;;;;;;;;5006761;28;4644;-62
2023/09/21 00:24:21;;;;;;;;;;;;;;;;;;5020179;28;4487;-61
2023/09/21 00:26:50;;;;;;;;;;;;;;;;;;5006701;28;4999;-62
2023/09/21 00:29:16;;;;;;;;;;;;;;;;;;5006743;28;1918;-62
2023/09/21 00:31:41;;;;;;;;;;;;;;;;;;5002158;28;4997;-62
2023/09/21 00:34:08;;;;;;;;;;;;;;;;;;5000294;28;4465;-62
2023/09/21 00:36:35;;;;;;;;;;;;;;;;;;5005795;28;5106;-61
2023/09/21 00:39:01;;;;;;;;;;;;;;;;;;4999581;28;4443;-61
2023/09/21 00:41:26;;;;;;;;;;;;;;;;;;5003674;28;1122;-61
2023/09/21 00:43:51;;;;;;;;;;;;;;;;;;5004937;28;5030;-62
2023/09/21 00:46:16;;;;;;;;;;;;;;;;;;4999121;28;4803;-61
2023/09/21 00:48:42;;;;;;;;;;;;;;;;;;5006450;28;5146;-62
2023/09/21 00:51:09;;;;;;;;;;;;;;;;;;4992767;28;5157;-62
2023/09/21 00:53:34;;;;;;;;;;;;;;;;;;5025293;28;4971;-61
2023/09/21 00:56:11;;;;;;;;;;;;;;;;;;5006298;28;1030;-61
2023/09/21 00:58:36;;;;;;;;;;;;;;;;;;5009347;28;4982;-62
2023/09/21 01:01:02;;;;;;;;;;;;;;;;;;5007025;28;5055;-62
2023/09/21 01:03:28;;;;;;;;;;;;;;;;;;5010394;28;5255;-62
2023/09/21 01:05:53;;;;;;;;;;;;;;;;;;5010364;28;5102;-62
2023/09/21 01:08:21;;;;;;;;;;;;;;;;;;5007450;28;1959;-62
2023/09/21 01:10:49;;;;;;;;;;;;;;;;;;5007063;28;5030;-62
2023/09/21 01:13:15;;;;;;;;;;;;;;;;;;5008857;28;5021;-62
2023/09/21 01:15:46;;;;;;;;;;;;;;;;;;5008545;28;5116;-62
2023/09/21 01:18:16;;;;;;;;;;;;;;;;;;5009707;28;5058;-62
2023/09/21 01:20:42;;;;;;;;;;;;;;;;;;5009918;28;5053;-62
2023/09/21 01:23:17;;;;;;;;;;;;;;;;;;5003892;28;1142;-62
2023/09/21 01:25:42;;;;;;;;;;;;;;;;;;5009951;28;5871;-62
2023/09/21 01:28:09;;;;;;;;;;;;;;;;;;5005992;28;5054;-62
2023/09/21 01:30:34;;;;;;;;;;;;;;;;;;5008353;28;5099;-62
2023/09/21 01:33:04;;;;;;;;;;;;;;;;;;5009136;28;4976;-62
2023/09/21 01:35:34;;;;;;;;;;;;;;;;;;5002776;28;4876;-61
2023/09/21 01:37:59;;;;;;;;;;;;;;;;;;4995143;28;1022;-61
2023/09/21 01:40:25;;;;;;;;;;;;;;;;;;5003605;28;5957;-61
2023/09/21 01:42:50;;;;;;;;;;;;;;;;;;5000234;28;5041;-62
2023/09/21 01:45:16;;;;;;;;;;;;;;;;;;4998812;28;4976;-62
2023/09/21 01:47:42;;;;;;;;;;;;;;;;;;4991924;28;4722;-62
2023/09/21 01:50:09;;;;;;;;;;;;;;;;;;5008530;28;1677;-62
2023/09/21 01:52:35;;;;;;;;;;;;;;;;;;5006819;28;4995;-62
2023/09/21 01:55:05;;;;;;;;;;;;;;;;;;5008467;28;5256;-61
2023/09/21 01:57:32;;;;;;;;;;;;;;;;;;5002289;28;4932;-62
2023/09/21 01:59:57;;;;;;;;;;;;;;;;;;5008825;28;5355;-62
2023/09/21 02:02:23;;;;;;;;;;;;;;;;;;5010151;28;1156;-61
2023/09/21 02:04:48;;;;;;;;;;;;;;;;;;5003700;28;4976;-62
2023/09/21 02:07:14;;;;;;;;;;;;;;;;;;5007086;28;5064;-61
2023/09/21 02:09:40;;;;;;;;;;;;;;;;;;5008874;28;4467;-62
2023/09/21 02:12:05;;;;;;;;;;;;;;;;;;5005939;28;4970;-61
2023/09/21 02:14:30;;;;;;;;;;;;;;;;;;5009087;28;4455;-62
2023/09/21 02:16:56;;;;;;;;;;;;;;;;;;5009162;28;1252;-61
2023/09/21 02:19:21;;;;;;;;;;;;;;;;;;5004857;28;4661;-61
2023/09/21 02:21:46;;;;;;;;;;;;;;;;;;5002358;28;5606;-61
2023/09/21 02:24:12;;;;;;;;;;;;;;;;;;5001013;28;5165;-62
2023/09/21 02:26:37;;;;;;;;;;;;;;;;;;5004013;28;4566;-62
2023/09/21 02:29:04;;;;;;;;;;;;;;;;;;5007434;28;1938;-62
2023/09/21 02:31:29;;;;;;;;;;;;;;;;;;5004915;28;4573;-62
2023/09/21 02:33:54;;;;;;;;;;;;;;;;;;5002257;28;4465;-62
2023/09/21 02:36:20;;;;;;;;;;;;;;;;;;4987142;28;5069;-61
2023/09/21 02:38:45;;;;;;;;;;;;;;;;;;4997972;28;4552;-61
2023/09/21 02:41:10;;;;;;;;;;;;;;;;;;5001901;28;1238;-62
2023/09/21 02:43:36;;;;;;;;;;;;;;;;;;5000361;28;4912;-62
2023/09/21 02:46:01;;;;;;;;;;;;;;;;;;4986860;28;5068;-61
2023/09/21 02:48:26;;;;;;;;;;;;;;;;;;4998708;28;5177;-62
2023/09/21 02:50:52;;;;;;;;;;;;;;;;;;4990305;28;5164;-61
2023/09/21 02:53:17;;;;;;;;;;;;;;;;;;5003862;28;4889;-61
2023/09/21 02:55:42;;;;;;;;;;;;;;;;;;5011569;28;4423;-62
2023/09/21 02:58:12;;;;;;;;;;;;;;;;;;5008169;28;4998;-61
2023/09/21 03:00:42;;;;;;;;;;;;;;;;;;4990183;28;4937;-62
2023/09/21 03:03:10;;;;;;;;;;;;;;;;;;5008037;28;4479;-61
2023/09/21 03:05:36;;;;;;;;;;;;;;;;;;5008156;28;4514;-62
2023/09/21 03:08:05;;;;;;;;;;;;;;;;;;5004162;28;1910;-62
2023/09/21 03:10:30;;;;;;;;;;;;;;;;;;5007542;28;4755;-62
2023/09/21 03:12:56;;;;;;;;;;;;;;;;;;5007664;28;4974;-62
2023/09/21 03:15:22;;;;;;;;;;;;;;;;;;5002960;28;5154;-62
2023/09/21 03:17:48;;;;;;;;;;;;;;;;;;5006929;28;4750;-62
2023/09/21 03:20:28;;;;;;;;;;;;;;;;;;4986460;28;1689;-62
2023/09/21 03:22:54;;;;;;;;;;;;;;;;;;5002185;28;5060;-62
2023/09/21 03:25:25;;;;;;;;;;;;;;;;;;5006349;28;5076;-61
2023/09/21 03:27:50;;;;;;;;;;;;;;;;;;5005797;28;5104;-62
2023/09/21 03:30:17;;;;;;;;;;;;;;;;;;5004545;28;5042;-61
2023/09/21 03:32:43;;;;;;;;;;;;;;;;;;5004706;28;5142;-62
2023/09/21 03:35:11;;;;;;;;;;;;;;;;;;5005481;28;1150;-62
2023/09/21 03:37:38;;;;;;;;;;;;;;;;;;5006668;28;4956;-62
2023/09/21 03:40:06;;;;;;;;;;;;;;;;;;5001541;28;5012;-62
2023/09/21 03:42:32;;;;;;;;;;;;;;;;;;5007293;28;5060;-62
2023/09/21 03:44:57;;;;;;;;;;;;;;;;;;5001620;28;4745;-62
2023/09/21 03:47:23;;;;;;;;;;;;;;;;;;5004426;28;1120;-62
2023/09/21 03:49:49;;;;;;;;;;;;;;;;;;5002744;28;4833;-61
2023/09/21 03:52:16;;;;;;;;;;;;;;;;;;5007036;28;5029;-62
2023/09/21 03:54:46;;;;;;;;;;;;;;;;;;5007455;28;5151;-61
2023/09/21 03:57:14;;;;;;;;;;;;;;;;;;5002930;28;4837;-61
2023/09/21 03:59:40;;;;;;;;;;;;;;;;;;5007207;28;4939;-62
2023/09/21 04:02:07;;;;;;;;;;;;;;;;;;4994646;28;2003;-62
2023/09/21 04:04:32;;;;;;;;;;;;;;;;;;4990136;28;5057;-62
2023/09/21 04:06:57;;;;;;;;;;;;;;;;;;5010289;28;4887;-61
2023/09/21 04:09:23;;;;;;;;;;;;;;;;;;5011310;28;4491;-62
2023/09/21 04:11:48;;;;;;;;;;;;;;;;;;5003282;28;5051;-62
2023/09/21 04:14:13;;;;;;;;;;;;;;;;;;5011685;28;1318;-62
2023/09/21 04:16:38;;;;;;;;;;;;;;;;;;5008403;28;5009;-61
2023/09/21 04:19:05;;;;;;;;;;;;;;;;;;5009600;28;4657;-62
2023/09/21 04:21:31;;;;;;;;;;;;;;;;;;5011016;28;4639;-62
2023/09/21 04:23:57;;;;;;;;;;;;;;;;;;5005008;28;4972;-62
2023/09/21 04:26:22;;;;;;;;;;;;;;;;;;5011329;28;1122;-61
2023/09/21 04:28:48;;;;;;;;;;;;;;;;;;5007665;28;4983;-61
2023/09/21 04:31:13;;;;;;;;;;;;;;;;;;5007137;28;4990;-61
2023/09/21 04:33:39;;;;;;;;;;;;;;;;;;5006389;28;5045;-61
2023/09/21 04:36:04;;;;;;;;;;;;;;;;;;5004229;28;4480;-61
2023/09/21 04:38:29;;;;;;;;;;;;;;;;;;5008925;28;4651;-61
2023/09/21 04:40:55;;;;;;;;;;;;;;;;;;5000286;28;1126;-61
2023/09/21 04:43:20;;;;;;;;;;;;;;;;;;5004690;28;5169;-61
2023/09/21 04:45:49;;;;;;;;;;;;;;;;;;4996348;28;5045;-61
2023/09/21 04:48:14;;;;;;;;;;;;;;;;;;5009128;28;4948;-61
2023/09/21 04:50:42;;;;;;;;;;;;;;;;;;5010091;28;4661;-61
2023/09/21 04:53:07;;;;;;;;;;;;;;;;;;5007785;28;4852;-62
2023/09/21 04:55:32;;;;;;;;;;;;;;;;;;5010143;28;4621;-61
2023/09/21 04:57:58;;;;;;;;;;;;;;;;;;5009721;28;4939;-61
2023/09/21 05:00:23;;;;;;;;;;;;;;;;;;5005526;28;5102;-61
2023/09/21 05:02:48;;;;;;;;;;;;;;;;;;5009112;28;4433;-61
2023/09/21 05:05:15;;;;;;;;;;;;;;;;;;5009927;28;1126;-61
2023/09/21 05:07:40;;;;;;;;;;;;;;;;;;5007053;28;4819;-61
2023/09/21 05:10:07;;;;;;;;;;;;;;;;;;5008700;28;4485;-61
2023/09/21 05:12:32;;;;;;;;;;;;;;;;;;5015268;28;5233;-60
2023/09/21 05:14:57;;;;;;;;;;;;;;;;;;4996775;28;5099;-60
2023/09/21 05:17:22;;;;;;;;;;;;;;;;;;5008793;28;3313;-60
2023/09/21 05:19:49;;;;;;;;;;;;;;;;;;5001520;28;5001;-61
2023/09/21 05:22:14;;;;;;;;;;;;;;;;;;4998688;28;5082;-61
2023/09/21 05:24:39;;;;;;;;;;;;;;;;;;5005023;28;4723;-60
2023/09/21 05:27:06;;;;;;;;;;;;;;;;;;5005169;28;5005;-60
2023/09/21 05:29:31;;;;;;;;;;;;;;;;;;4990099;28;5099;-61
2023/09/21 05:31:56;;;;;;;;;;;;;;;;;;5001907;28;3320;-60
2023/09/21 05:34:22;;;;;;;;;;;;;;;;;;5003270;28;5036;-60
2023/09/21 05:36:49;;;;;;;;;;;;;;;;;;5000451;28;5037;-60
2023/09/21 05:39:16;;;;;;;;;;;;;;;;;;5007894;28;4457;-61
2023/09/21 05:41:42;;;;;;;;;;;;;;;;;;5009790;28;4498;-61
2023/09/21 05:44:08;;;;;;;;;;;;;;;;;;5001720;28;3269;-61
2023/09/21 05:46:33;;;;;;;;;;;;;;;;;;4987918;28;5094;-61
2023/09/21 05:48:59;;;;;;;;;;;;;;;;;;5004943;28;5308;-61
2023/09/21 05:51:25;;;;;;;;;;;;;;;;;;5002114;28;4886;-60
2023/09/21 05:53:51;;;;;;;;;;;;;;;;;;4999132;28;4743;-62
2023/09/21 05:56:19;;;;;;;;;;;;;;;;;;5003053;28;3356;-66
2023/09/21 05:58:45;;;;;;;;;;;;;;;;;;5000887;28;5193;-61
2023/09/21 06:01:10;;;;;;;;;;;;;;;;;;4998979;28;5062;-61
2023/09/21 06:03:36;;;;;;;;;;;;;;;;;;5003421;28;5009;-62
2023/09/21 06:06:01;;;;;;;;;;;;;;;;;;5005372;28;5241;-61
2023/09/21 06:08:27;;;;;;;;;;;;;;;;;;5008359;28;1914;-62
2023/09/21 06:10:53;;;;;;;;;;;;;;;;;;5008085;28;4370;-62
2023/09/21 06:13:19;;;;;;;;;;;;;;;;;;5010795;28;4456;-62
2023/09/21 06:15:47;;;;;;;;;;;;;;;;;;5007872;28;4441;-61
2023/09/21 06:18:14;;;;;;;;;;;;;;;;;;5008627;28;4469;-61
2023/09/21 06:20:41;;;;;;;;;;;;;;;;;;5008890;28;4971;-62
2023/09/21 06:23:06;;;;;;;;;;;;;;;;;;5008534;28;1141;-61
2023/09/21 06:25:32;;;;;;;;;;;;;;;;;;5007816;28;4702;-61
2023/09/21 06:27:57;;;;;;;;;;;;;;;;;;5003173;28;5050;-62
2023/09/21 06:30:22;;;;;;;;;;;;;;;;;;5003404;28;4648;-62
2023/09/21 06:32:48;;;;;;;;;;;;;;;;;;4989803;28;5061;-61
2023/09/21 06:35:14;;;;;;;;;;;;;;;;;;5004025;28;1515;-61
2023/09/21 06:37:39;;;;;;;;;;;;;;;;;;5006829;28;4992;-61
2023/09/21 06:40:06;;;;;;;;;;;;;;;;;;5007842;28;4483;-61
2023/09/21 06:42:31;;;;;;;;;;;;;;;;;;5005612;28;5180;-61
2023/09/21 06:44:57;;;;;;;;;;;;;;;;;;5006404;28;4999;-61
2023/09/21 06:47:23;;;;;;;;;;;;;;;;;;4989563;28;1135;-61
2023/09/21 06:49:49;;;;;;;;;;;;;;;;;;5007990;28;4976;-60
2023/09/21 06:52:17;;;;;;;;;;;;;;;;;;5006142;28;5019;-61
2023/09/21 06:54:42;;;;;;;;;;;;;;;;;;4990003;28;5076;-60
2023/09/21 06:57:08;;;;;;;;;;;;;;;;;;5008104;28;5007;-58
2023/09/21 06:59:36;;;;;;;;;;;;;;;;;;4989857;28;5024;-59
2023/09/21 07:02:02;;;;;;;;;;;;;;;;;;5000824;28;2465;-58
2023/09/21 07:04:28;;;;;;;;;;;;;;;;;;5009314;28;5140;-58
2023/09/21 07:06:54;;;;;;;;;;;;;;;;;;5006490;28;5011;-58
2023/09/21 07:09:19;;;;;;;;;;;;;;;;;;5007232;28;4647;-59
2023/09/21 07:11:45;;;;;;;;;;;;;;;;;;5003173;28;4500;-59
2023/09/21 07:14:10;;;;;;;;;;;;;;;;;;5000233;28;3307;-59
2023/09/21 07:16:35;;;;;;;;;;;;;;;;;;5001174;28;4922;-58
2023/09/21 07:19:00;;;;;;;;;;;;;;;;;;5002055;28;5046;-59
2023/09/21 07:21:26;;;;;;;;;;;;;;;;;;5003686;28;5054;-59
2023/09/21 07:23:51;;;;;;;;;;;;;;;;;;5009841;28;5243;-59
2023/09/21 07:26:17;;;;;;;;;;;;;;;;;;5006986;28;3324;-60
2023/09/21 07:28:44;;;;;;;;;;;;;;;;;;5006332;28;4514;-58
2023/09/21 07:31:09;;;;;;;;;;;;;;;;;;5002847;28;4628;-59
2023/09/21 07:33:35;;;;;;;;;;;;;;;;;;5005562;28;4509;-59
2023/09/21 07:36:01;;;;;;;;;;;;;;;;;;5005717;28;5063;-60
2023/09/21 07:38:27;;;;;;;;;;;;;;;;;;5005851;28;3549;-59
2023/09/21 07:40:52;;;;;;;;;;;;;;;;;;5003681;28;4819;-59
2023/09/21 07:43:18;;;;;;;;;;;;;;;;;;5013380;28;4926;-59
2023/09/21 07:45:45;;;;;;;;;;;;;;;;;;5003424;28;5065;-60
2023/09/21 07:48:10;;;;;;;;;;;;;;;;;;5006550;28;5058;-58
2023/09/21 07:50:36;;;;;;;;;;;;;;;;;;5006632;28;5173;-60
2023/09/21 07:53:03;;;;;;;;;;;;;;;;;;5003352;28;4929;-60
2023/09/21 07:55:28;;;;;;;;;;;;;;;;;;5006403;28;4980;-60
2023/09/21 07:57:54;;;;;;;;;;;;;;;;;;5007010;28;4978;-59
2023/09/21 08:00:19;;;;;;;;;;;;;;;;;;5006563;28;5124;-61
2023/09/21 08:02:44;;;;;;;;;;;;;;;;;;5004723;28;4597;-60
2023/09/21 08:05:09;;;;;;;;;;;;;;;;;;5006884;28;1114;-60
2023/09/21 08:07:36;;;;;;;;;;;;;;;;;;5007544;28;4429;-59
2023/09/21 08:10:01;;;;;;;;;;;;;;;;;;5004959;28;4529;-59
2023/09/21 08:12:27;;;;;;;;;;;;;;;;;;4999334;28;4963;-60
2023/09/21 08:14:52;;;;;;;;;;;;;;;;;;5004259;28;5108;-60
2023/09/21 08:17:18;;;;;;;;;;;;;;;;;;5005350;28;3390;-61
2023/09/21 08:19:44;;;;;;;;;;;;;;;;;;5004369;28;4479;-61
2023/09/21 08:22:09;;;;;;;;;;;;;;;;;;5006158;28;5070;-58
2023/09/21 08:24:36;;;;;;;;;;;;;;;;;;5004719;28;5174;-61
2023/09/21 08:27:02;;;;;;;;;;;;;;;;;;5005271;28;5257;-57
2023/09/21 08:29:27;;;;;;;;;;;;;;;;;;5005679;28;3356;-61
2023/09/21 08:31:52;;;;;;;;;;;;;;;;;;5004189;28;5178;-57
2023/09/21 08:34:19;;;;;;;;;;;;;;;;;;5002262;28;5072;-58
2023/09/21 08:36:44;;;;;;;;;;;;;;;;;;4982521;28;4965;-57
2023/09/21 08:39:10;;;;;;;;;;;;;;;;;;4998998;28;4679;-57
2023/09/21 08:41:36;;;;;;;;;;;;;;;;;;5002221;28;4502;-57
2023/09/21 08:44:01;;;;;;;;;;;;;;;;;;5006805;28;1214;-57
2023/09/21 08:46:27;;;;;;;;;;;;;;;;;;5001029;28;4970;-57
2023/09/21 08:48:55;;;;;;;;;;;;;;;;;;5005954;28;4645;-57
2023/09/21 08:51:21;;;;;;;;;;;;;;;;;;5000254;28;5050;-56
2023/09/21 08:53:48;;;;;;;;;;;;;;;;;;5005022;28;5166;-57
2023/09/21 08:56:13;;;;;;;;;;;;;;;;;;5003752;28;1167;-56
2023/09/21 08:58:41;;;;;;;;;;;;;;;;;;5007494;28;4918;-57
2023/09/21 09:01:06;;;;;;;;;;;;;;;;;;5006303;28;4674;-57
2023/09/21 09:03:32;;;;;;;;;;;;;;;;;;5007068;28;4891;-57
2023/09/21 09:05:58;;;;;;;;;;;;;;;;;;5007514;28;5056;-56
2023/09/21 09:08:24;;;;;;;;;;;;;;;;;;5003892;28;1914;-57
2023/09/21 09:10:51;;;;;;;;;;;;;;;;;;5008907;28;4596;-61
2023/09/21 09:13:16;;;;;;;;;;;;;;;;;;5002617;28;4594;-60
2023/09/21 09:15:45;;;;;;;;;;;;;;;;;;5006364;28;5011;-61
2023/09/21 09:18:10;;;;;;;;;;;;;;;;;;5008503;28;4872;-62
2023/09/21 09:20:38;;;;;;;;;;;;;;;;;;5005073;28;5127;-61
2023/09/21 09:23:09;;;;;;;;;;;;;;;;;;5009547;28;1392;-62
2023/09/21 09:25:35;;;;;;;;;;;;;;;;;;4990864;28;4495;-62
2023/09/21 09:28:01;;;;;;;;;;;;;;;;;;5009068;28;5019;-61
2023/09/21 09:30:27;;;;;;;;;;;;;;;;;;4983389;28;5129;-60
2023/09/21 09:32:54;;;;;;;;;;;;;;;;;;5002044;28;4998;-61
2023/09/21 09:35:20;;;;;;;;;;;;;;;;;;5007654;28;1141;-61
2023/09/21 09:37:47;;;;;;;;;;;;;;;;;;5008565;28;4974;-61
2023/09/21 09:40:18;;;;;;;;;;;;;;;;;;5003683;28;4472;-60
2023/09/21 09:42:44;;;;;;;;;;;;;;;;;;5005469;28;5032;-62
2023/09/21 09:45:11;;;;;;;;;;;;;;;;;;5003911;28;5216;-61
2023/09/21 09:47:36;;;;;;;;;;;;;;;;;;5008613;28;4616;-61
2023/09/21 09:50:04;;;;;;;;;;;;;;;;;;5000170;28;1989;-61
2023/09/21 09:52:29;;;;;;;;;;;;;;;;;;5005459;28;4815;-62
2023/09/21 09:54:56;;;;;;;;;;;;;;;;;;5002480;28;4488;-60
2023/09/21 09:57:21;;;;;;;;;;;;;;;;;;5006566;28;4455;-60
2023/09/21 09:59:47;;;;;;;;;;;;;;;;;;5001603;28;5097;-61
2023/09/21 10:02:13;;;;;;;;;;;;;;;;;;5009090;28;1293;-63
2023/09/21 10:04:39;;;;;;;;;;;;;;;;;;4990750;28;4568;-59
2023/09/21 10:07:06;;;;;;;;;;;;;;;;;;4988559;28;4652;-59
2023/09/21 10:09:31;;;;;;;;;;;;;;;;;;5002752;28;4568;-60
2023/09/21 10:11:57;;;;;;;;;;;;;;;;;;5003812;28;4994;-60
2023/09/21 10:14:22;;;;;;;;;;;;;;;;;;5021250;28;1354;-61
2023/09/21 10:16:54;;;;;;;;;;;;;;;;;;4989806;28;5150;-63
2023/09/21 10:19:24;;;;;;;;;;;;;;;;;;5007284;28;5174;-61
2023/09/21 10:21:51;;;;;;;;;;;;;;;;;;5007733;28;5033;-61
2023/09/21 10:24:18;;;;;;;;;;;;;;;;;;5006075;28;4506;-61
2023/09/21 10:26:50;;;;;;;;;;;;;;;;;;5007515;28;5107;-60
2023/09/21 10:29:17;;;;;;;;;;;;;;;;;;4990493;28;2423;-61
2023/09/21 10:31:43;;;;;;;;;;;;;;;;;;5004656;28;4637;-62
2023/09/21 10:34:12;;;;;;;;;;;;;;;;;;5007805;28;5018;-60
2023/09/21 10:36:42;;;;;;;;;;;;;;;;;;5002822;28;4679;-62
2023/09/21 10:39:10;;;;;;;;;;;;;;;;;;5002947;28;5029;-61
2023/09/21 10:41:41;;;;;;;;;;;;;;;;;;5004018;28;4453;-63
2023/09/21 10:44:07;;;;;;;;;;;;;;;;;;5004328;28;1396;-61
2023/09/21 10:46:35;;;;;;;;;;;;;;;;;;4998117;28;4501;-58
2023/09/21 10:49:03;;;;;;;;;;;;;;;;;;4998237;28;5104;-58
2023/09/21 10:51:29;;;;;;;;;;;;;;;;;;5007421;28;4481;-60
2023/09/21 10:53:58;;;;;;;;;;;;;;;;;;5002424;28;4884;-59
2023/09/21 10:56:23;;;;;;;;;;;;;;;;;;5003607;28;2975;-60
2023/09/21 10:58:48;;;;;;;;;;;;;;;;;;5004049;28;4928;-59
2023/09/21 11:01:15;;;;;;;;;;;;;;;;;;5003177;28;5005;-59
2023/09/21 11:03:42;;;;;;;;;;;;;;;;;;5006515;28;5122;-59
2023/09/21 11:06:07;;;;;;;;;;;;;;;;;;4990190;28;4638;-60
2023/09/21 11:08:33;;;;;;;;;;;;;;;;;;5009907;28;5075;-59
2023/09/21 11:10:58;;;;;;;;;;;;;;;;;;5005984;28;1157;-61
2023/09/21 11:13:26;;;;;;;;;;;;;;;;;;5001788;28;4930;-59
2023/09/21 11:15:54;;;;;;;;;;;;;;;;;;5001053;28;5090;-59
2023/09/21 11:18:19;;;;;;;;;;;;;;;;;;5022093;28;4675;-59
2023/09/21 11:20:45;;;;;;;;;;;;;;;;;;5005055;28;4632;-59
2023/09/21 11:23:11;;;;;;;;;;;;;;;;;;5006919;28;1356;-59
2023/09/21 11:25:37;;;;;;;;;;;;;;;;;;5007888;28;4606;-60
2023/09/21 11:28:02;;;;;;;;;;;;;;;;;;5002748;28;4501;-59
2023/09/21 11:30:28;;;;;;;;;;;;;;;;;;5002404;28;4492;-58
2023/09/21 11:32:54;;;;;;;;;;;;;;;;;;5000429;28;5320;-59
2023/09/21 11:35:19;;;;;;;;;;;;;;;;;;4989443;28;1388;-59
2023/09/21 11:37:51;;;;;;;;;;;;;;;;;;4999527;28;5256;-59
2023/09/21 11:40:21;;;;;;;;;;;;;;;;;;5002865;28;5019;-59
2023/09/21 11:42:46;;;;;;;;;;;;;;;;;;5001521;28;5381;-59
2023/09/21 11:45:16;;;;;;;;;;;;;;;;;;5001619;28;5047;-59
2023/09/21 11:47:46;;;;;;;;;;;;;;;;;;5006245;28;4624;-59
2023/09/21 11:50:11;;;;;;;;;;;;;;;;;;5003588;28;1926;-59
2023/09/21 11:52:36;;;;;;;;;;;;;;;;;;5007928;28;4932;-59
2023/09/21 11:55:02;;;;;;;;;;;;;;;;;;5001644;28;4433;-59
2023/09/21 11:57:27;;;;;;;;;;;;;;;;;;5004486;28;4984;-59
2023/09/21 11:59:56;;;;;;;;;;;;;;;;;;5006025;28;5063;-60
2023/09/21 12:02:21;;;;;;;;;;;;;;;;;;5003950;28;1095;-59
2023/09/21 12:04:49;;;;;;;;;;;;;;;;;;4981341;28;4874;-59
2023/09/21 12:07:15;;;;;;;;;;;;;;;;;;5003393;28;5250;-59
2023/09/21 12:09:43;;;;;;;;;;;;;;;;;;5003768;28;5017;-60
2023/09/21 12:12:09;;;;;;;;;;;;;;;;;;5005281;28;5416;-59
2023/09/21 12:14:35;;;;;;;;;;;;;;;;;;5006730;28;4637;-59
2023/09/21 12:17:04;;;;;;;;;;;;;;;;;;5005831;28;1442;-59
2023/09/21 12:19:30;;;;;;;;;;;;;;;;;;4989194;28;4453;-59
2023/09/21 12:21:56;;;;;;;;;;;;;;;;;;5007522;28;4423;-59
2023/09/21 12:24:21;;;;;;;;;;;;;;;;;;5010496;28;4846;-59
2023/09/21 12:26:47;;;;;;;;;;;;;;;;;;4992506;28;5033;-59
2023/09/21 12:29:15;;;;;;;;;;;;;;;;;;5007437;28;1910;-59
2023/09/21 12:31:40;;;;;;;;;;;;;;;;;;5010230;28;4517;-59
2023/09/21 12:34:06;;;;;;;;;;;;;;;;;;5009382;28;4512;-59
2023/09/21 12:36:32;;;;;;;;;;;;;;;;;;5010336;28;5108;-59
2023/09/21 12:38:59;;;;;;;;;;;;;;;;;;5008822;28;4658;-59
2023/09/21 12:41:24;;;;;;;;;;;;;;;;;;5006968;28;1098;-59
2023/09/21 12:43:49;;;;;;;;;;;;;;;;;;5010074;28;4679;-59
2023/09/21 12:46:14;;;;;;;;;;;;;;;;;;5005890;28;5063;-59
2023/09/21 12:48:40;;;;;;;;;;;;;;;;;;5009647;28;5075;-59
2023/09/21 12:51:05;;;;;;;;;;;;;;;;;;5009020;28;4864;-59
2023/09/21 12:53:30;;;;;;;;;;;;;;;;;;5003070;28;4995;-59
2023/09/21 12:55:56;;;;;;;;;;;;;;;;;;5010637;28;1111;-59
2023/09/21 12:58:21;;;;;;;;;;;;;;;;;;5001703;28;4996;-58
2023/09/21 13:00:46;;;;;;;;;;;;;;;;;;5009212;28;5119;-59
2023/09/21 13:03:12;;;;;;;;;;;;;;;;;;5007271;28;5100;-61
2023/09/21 13:05:40;;;;;;;;;;;;;;;;;;5006337;28;5104;-59
2023/09/21 13:08:06;;;;;;;;;;;;;;;;;;5010438;28;1922;-58
2023/09/21 13:10:31;;;;;;;;;;;;;;;;;;5009290;28;5065;-59
2023/09/21 13:12:56;;;;;;;;;;;;;;;;;;5008427;28;5840;-60
2023/09/21 13:15:22;;;;;;;;;;;;;;;;;;5009127;28;5043;-59
2023/09/21 13:17:47;;;;;;;;;;;;;;;;;;5006931;28;4686;-59
2023/09/21 13:20:17;;;;;;;;;;;;;;;;;;5010061;28;3482;-58
2023/09/21 13:22:42;;;;;;;;;;;;;;;;;;5007856;28;5207;-59
2023/09/21 13:25:08;;;;;;;;;;;;;;;;;;5007991;28;4976;-59
2023/09/21 13:27:33;;;;;;;;;;;;;;;;;;5008038;28;5097;-59
2023/09/21 13:29:58;;;;;;;;;;;;;;;;;;5008439;28;5422;-59
2023/09/21 13:32:25;;;;;;;;;;;;;;;;;;5006128;28;3339;-59
2023/09/21 13:34:50;;;;;;;;;;;;;;;;;;5005900;28;4566;-59
2023/09/21 13:37:16;;;;;;;;;;;;;;;;;;5009529;28;4903;-59
2023/09/21 13:39:42;;;;;;;;;;;;;;;;;;5008380;28;5020;-59
2023/09/21 13:42:08;;;;;;;;;;;;;;;;;;5007681;28;4809;-59
2023/09/21 13:44:33;;;;;;;;;;;;;;;;;;5008087;28;4976;-59
2023/09/21 13:47:00;;;;;;;;;;;;;;;;;;5002025;28;3291;-59
2023/09/21 13:49:26;;;;;;;;;;;;;;;;;;5006312;28;4659;-59
2023/09/21 13:51:52;;;;;;;;;;;;;;;;;;5009329;28;5005;-59
2023/09/21 13:54:17;;;;;;;;;;;;;;;;;;5006477;28;4957;-59
2023/09/21 13:56:42;;;;;;;;;;;;;;;;;;5007187;28;6000;-58
2023/09/21 13:59:07;;;;;;;;;;;;;;;;;;5003930;28;1487;-59
2023/09/21 14:01:33;;;;;;;;;;;;;;;;;;4996706;28;5087;-59
2023/09/21 14:03:58;;;;;;;;;;;;;;;;;;5012281;28;4997;-59
2023/09/21 14:06:25;;;;;;;;;;;;;;;;;;4994522;28;5093;-59
2023/09/21 14:08:50;;;;;;;;;;;;;;;;;;5004603;28;5054;-61
2023/09/21 14:11:15;;;;;;;;;;;;;;;;;;5006041;28;3340;-61
2023/09/21 14:13:41;;;;;;;;;;;;;;;;;;5005289;28;5918;-61
2023/09/21 14:16:06;;;;;;;;;;;;;;;;;;5002477;28;4544;-61
2023/09/21 14:18:32;;;;;;;;;;;;;;;;;;5004357;28;5084;-60
2023/09/21 14:20:57;;;;;;;;;;;;;;;;;;5003071;28;5121;-61
2023/09/21 14:23:22;;;;;;;;;;;;;;;;;;4999985;28;3285;-60
2023/09/21 14:25:48;;;;;;;;;;;;;;;;;;4998459;28;4456;-60
2023/09/21 14:28:13;;;;;;;;;;;;;;;;;;4999829;28;5537;-60
2023/09/21 14:30:39;;;;;;;;;;;;;;;;;;5002682;28;5159;-60
2023/09/21 14:33:07;;;;;;;;;;;;;;;;;;5002383;28;4923;-60
2023/09/21 14:35:34;;;;;;;;;;;;;;;;;;5005766;28;4901;-59
2023/09/21 14:37:59;;;;;;;;;;;;;;;;;;5005425;28;3379;-60
2023/09/21 14:40:24;;;;;;;;;;;;;;;;;;5007059;28;4679;-61
2023/09/21 14:42:50;;;;;;;;;;;;;;;;;;5001733;28;5119;-60
2023/09/21 14:45:15;;;;;;;;;;;;;;;;;;5001630;28;5285;-57
2023/09/21 14:47:40;;;;;;;;;;;;;;;;;;5006005;28;5018;-57
2023/09/21 14:50:07;;;;;;;;;;;;;;;;;;5008104;28;3257;-58
2023/09/21 14:52:33;;;;;;;;;;;;;;;;;;5007002;28;4917;-58
2023/09/21 14:54:58;;;;;;;;;;;;;;;;;;5005788;28;5089;-59
2023/09/21 14:57:24;;;;;;;;;;;;;;;;;;5004533;28;5563;-58
2023/09/21 14:59:50;;;;;;;;;;;;;;;;;;5002696;28;4452;-58
2023/09/21 15:02:15;;;;;;;;;;;;;;;;;;5006306;28;3153;-58
2023/09/21 15:04:40;;;;;;;;;;;;;;;;;;5005969;28;4579;-58
2023/09/21 15:07:07;;;;;;;;;;;;;;;;;;5004910;28;5065;-58
2023/09/21 15:09:32;;;;;;;;;;;;;;;;;;5007834;28;5032;-59
2023/09/21 15:11:58;;;;;;;;;;;;;;;;;;4998936;28;4677;-58
2023/09/21 15:14:23;;;;;;;;;;;;;;;;;;5005450;28;3067;-58
2023/09/21 15:16:49;;;;;;;;;;;;;;;;;;4988760;28;4932;-58
2023/09/21 15:19:14;;;;;;;;;;;;;;;;;;5006685;28;4714;-58
2023/09/21 15:21:39;;;;;;;;;;;;;;;;;;5000850;28;4875;-58
2023/09/21 15:24:06;;;;;;;;;;;;;;;;;;5006026;28;5200;-58
2023/09/21 15:26:31;;;;;;;;;;;;;;;;;;5002783;28;5018;-59
2023/09/21 15:28:56;;;;;;;;;;;;;;;;;;5004640;28;3328;-58
2023/09/21 15:31:22;;;;;;;;;;;;;;;;;;5004541;28;5020;-58
2023/09/21 15:33:47;;;;;;;;;;;;;;;;;;5003776;28;5027;-59
2023/09/21 15:36:12;;;;;;;;;;;;;;;;;;5004912;28;4919;-58
2023/09/21 15:38:37;;;;;;;;;;;;;;;;;;5007321;28;5004;-59
2023/09/21 15:41:07;;;;;;;;;;;;;;;;;;5001914;28;1106;-59
2023/09/21 15:43:32;;;;;;;;;;;;;;;;;;5006975;28;5214;-58
2023/09/21 15:45:58;;;;;;;;;;;;;;;;;;4989628;28;5270;-58
2023/09/21 15:48:26;;;;;;;;;;;;;;;;;;5006622;28;4517;-59
2023/09/21 15:50:53;;;;;;;;;;;;;;;;;;4998482;28;5356;-59
2023/09/21 15:53:19;;;;;;;;;;;;;;;;;;5007158;28;4988;-58
2023/09/21 15:55:44;;;;;;;;;;;;;;;;;;5002307;28;4579;-59
2023/09/21 15:58:10;;;;;;;;;;;;;;;;;;5005104;28;5093;-58
2023/09/21 16:00:35;;;;;;;;;;;;;;;;;;5004788;28;4528;-58
2023/09/21 16:03:00;;;;;;;;;;;;;;;;;;5005450;28;5059;-59
2023/09/21 16:05:25;;;;;;;;;;;;;;;;;;5006148;28;1337;-59
2023/09/21 16:07:51;;;;;;;;;;;;;;;;;;5006953;28;4929;-58
2023/09/21 16:10:16;;;;;;;;;;;;;;;;;;5000103;28;4429;-58
2023/09/21 16:12:41;;;;;;;;;;;;;;;;;;5007147;28;4653;-59
2023/09/21 16:15:07;;;;;;;;;;;;;;;;;;5006803;28;4496;-59
2023/09/21 16:17:32;;;;;;;;;;;;;;;;;;5007207;28;5062;-59
2023/09/21 16:19:58;;;;;;;;;;;;;;;;;;5007216;28;3174;-58
2023/09/21 16:22:23;;;;;;;;;;;;;;;;;;5005296;28;4446;-58
2023/09/21 16:24:49;;;;;;;;;;;;;;;;;;5006818;28;4623;-59
2023/09/21 16:27:15;;;;;;;;;;;;;;;;;;5006526;28;4595;-59
2023/09/21 16:29:40;;;;;;;;;;;;;;;;;;5001327;28;5011;-58
2023/09/21 16:32:05;;;;;;;;;;;;;;;;;;5004437;28;1331;-59
2023/09/21 16:34:31;;;;;;;;;;;;;;;;;;5006382;28;5009;-59
2023/09/21 16:36:56;;;;;;;;;;;;;;;;;;4999099;28;5028;-58
2023/09/21 16:39:23;;;;;;;;;;;;;;;;;;5005566;28;5231;-58
2023/09/21 16:41:49;;;;;;;;;;;;;;;;;;4997684;28;5045;-58
2023/09/21 16:44:14;;;;;;;;;;;;;;;;;;5003312;28;3277;-58
2023/09/21 16:46:39;;;;;;;;;;;;;;;;;;5001774;28;4974;-58
2023/09/21 16:49:05;;;;;;;;;;;;;;;;;;5006337;28;5043;-58
2023/09/21 16:51:30;;;;;;;;;;;;;;;;;;5003471;28;5077;-58
2023/09/21 16:53:57;;;;;;;;;;;;;;;;;;5003253;28;5096;-59
2023/09/21 16:56:23;;;;;;;;;;;;;;;;;;5004785;28;1241;-58